sensor_id;sensor_type;location;lat;lon;timestamp;temperature;humidity
39315;DHT22;28703;44.412;11.918;2022-09-12T07:07:14;18.00;99.90
39315;DHT22;28703;44.412;11.918;2022-09-12T07:09:40;18.20;99.90
39315;DHT22;28703;44.412;11.918;2022-09-12T07:12:06;18.30;99.90
39315;DHT22;28703;44.412;11.918;2022-09-12T07:14:32;18.30;99.90
39315;DHT22;28703;44.412;11.918;2022-09-12T07:16:58;18.40;99.90
39315;DHT22;28703;44.412;11.918;2022-09-12T07:19:24;18.50;99.90
39315;DHT22;28703;44.412;11.918;2022-09-12T07:21:50;18.60;99.90
39315;DHT22;28703;44.412;11.918;2022-09-12T07:24:16;18.70;99.90
39315;DHT22;28703;44.412;11.918;2022-09-12T07:26:41;18.80;99.90
39315;DHT22;28703;44.412;11.918;2022-09-12T07:29:13;18.90;99.90
39315;DHT22;28703;44.412;11.918;2022-09-12T07:31:40;19.00;99.90
39315;DHT22;28703;44.412;11.918;2022-09-12T07:34:06;19.10;99.90
39315;DHT22;28703;44.412;11.918;2022-09-12T07:36:32;19.20;99.90
39315;DHT22;28703;44.412;11.918;2022-09-12T07:38:58;19.30;99.90
39315;DHT22;28703;44.412;11.918;2022-09-12T07:41:29;19.40;99.90
39315;DHT22;28703;44.412;11.918;2022-09-12T07:43:57;19.50;99.90
39315;DHT22;28703;44.412;11.918;2022-09-12T07:46:25;19.60;99.90
39315;DHT22;28703;44.412;11.918;2022-09-12T07:48:51;19.60;99.90
39315;DHT22;28703;44.412;11.918;2022-09-12T07:51:18;19.80;99.90
39315;DHT22;28703;44.412;11.918;2022-09-12T07:53:45;19.90;99.90
39315;DHT22;28703;44.412;11.918;2022-09-12T07:56:12;20.00;99.90
39315;DHT22;28703;44.412;11.918;2022-09-12T07:58:39;20.20;99.90
39315;DHT22;28703;44.412;11.918;2022-09-12T08:01:07;20.30;99.90
39315;DHT22;28703;44.412;11.918;2022-09-12T08:03:38;20.40;99.90
39315;DHT22;28703;44.412;11.918;2022-09-12T08:06:10;20.60;99.90
39315;DHT22;28703;44.412;11.918;2022-09-12T08:08:36;20.80;99.90
39315;DHT22;28703;44.412;11.918;2022-09-12T08:11:05;21.20;99.90
39315;DHT22;28703;44.412;11.918;2022-09-12T08:13:33;21.80;99.90
39315;DHT22;28703;44.412;11.918;2022-09-12T08:16:00;22.40;99.90
39315;DHT22;28703;44.412;11.918;2022-09-12T08:18:27;22.90;99.90
39315;DHT22;28703;44.412;11.918;2022-09-12T08:20:58;23.30;99.90
39315;DHT22;28703;44.412;11.918;2022-09-12T08:23:24;23.80;99.90
39315;DHT22;28703;44.412;11.918;2022-09-12T08:25:51;24.20;99.90
39315;DHT22;28703;44.412;11.918;2022-09-12T08:28:19;24.60;99.90
39315;DHT22;28703;44.412;11.918;2022-09-12T08:30:45;25.00;99.90
39315;DHT22;28703;44.412;11.918;2022-09-12T08:33:11;25.40;99.90
39315;DHT22;28703;44.412;11.918;2022-09-12T08:35:37;25.70;99.90
39315;DHT22;28703;44.412;11.918;2022-09-12T08:38:02;26.00;99.90
39315;DHT22;28703;44.412;11.918;2022-09-12T08:40:29;26.10;99.90
39315;DHT22;28703;44.412;11.918;2022-09-12T08:43:09;26.30;99.90
39315;DHT22;28703;44.412;11.918;2022-09-12T08:45:53;26.40;99.90
39315;DHT22;28703;44.412;11.918;2022-09-12T08:48:22;26.50;99.90
39315;DHT22;28703;44.412;11.918;2022-09-12T08:50:48;26.70;99.90
39315;DHT22;28703;44.412;11.918;2022-09-12T08:53:18;27.10;99.90
39315;DHT22;28703;44.412;11.918;2022-09-12T08:55:55;27.30;99.90
39315;DHT22;28703;44.412;11.918;2022-09-12T08:58:23;27.50;99.90
39315;DHT22;28703;44.412;11.918;2022-09-12T09:04:03;27.50;99.90
39315;DHT22;28703;44.412;11.918;2022-09-12T09:09:41;27.70;99.90
39315;DHT22;28703;44.412;11.918;2022-09-12T09:20:06;27.70;99.90
39315;DHT22;28703;44.412;11.918;2022-09-12T09:22:48;27.60;99.90
39315;DHT22;28703;44.412;11.918;2022-09-12T09:25:24;27.60;99.90
39315;DHT22;28703;44.412;11.918;2022-09-12T09:30:55;27.60;99.90
39315;DHT22;28703;44.412;11.918;2022-09-12T09:33:24;27.60;99.90
39315;DHT22;28703;44.412;11.918;2022-09-12T09:36:57;27.70;99.90
39315;DHT22;28703;44.412;11.918;2022-09-12T09:39:04;27.80;99.90
39315;DHT22;28703;44.412;11.918;2022-09-12T09:44:21;28.00;99.90
39315;DHT22;28703;44.412;11.918;2022-09-12T09:46:51;28.00;99.90
39315;DHT22;28703;44.412;11.918;2022-09-12T09:49:18;28.10;99.90
39315;DHT22;28703;44.412;11.918;2022-09-12T09:51:46;28.10;99.90
39315;DHT22;28703;44.412;11.918;2022-09-12T09:54:22;28.20;99.90
39315;DHT22;28703;44.412;11.918;2022-09-12T09:56:50;28.30;99.80
39315;DHT22;28703;44.412;11.918;2022-09-12T09:59:26;28.40;99.90
39315;DHT22;28703;44.412;11.918;2022-09-12T10:01:55;28.60;99.90
39315;DHT22;28703;44.412;11.918;2022-09-12T10:04:27;28.60;99.70
39315;DHT22;28703;44.412;11.918;2022-09-12T10:06:57;28.60;99.10
39315;DHT22;28703;44.412;11.918;2022-09-12T10:09:29;28.70;99.40
39315;DHT22;28703;44.412;11.918;2022-09-12T10:11:57;28.70;98.30
39315;DHT22;28703;44.412;11.918;2022-09-12T10:14:39;28.80;98.30
39315;DHT22;28703;44.412;11.918;2022-09-12T10:17:25;29.00;98.00
39315;DHT22;28703;44.412;11.918;2022-09-12T10:19:53;29.10;98.40
39315;DHT22;28703;44.412;11.918;2022-09-12T10:22:22;29.20;98.60
39315;DHT22;28703;44.412;11.918;2022-09-12T10:24:57;29.40;98.00
39315;DHT22;28703;44.412;11.918;2022-09-12T10:27:31;29.40;96.50
39315;DHT22;28703;44.412;11.918;2022-09-12T10:30:03;29.40;96.90
39315;DHT22;28703;44.412;11.918;2022-09-12T10:32:40;29.60;97.10
39315;DHT22;28703;44.412;11.918;2022-09-12T10:35:19;29.70;96.30
39315;DHT22;28703;44.412;11.918;2022-09-12T10:37:55;29.70;95.10
39315;DHT22;28703;44.412;11.918;2022-09-12T10:40:28;29.80;94.30
39315;DHT22;28703;44.412;11.918;2022-09-12T10:42:59;29.90;95.00
39315;DHT22;28703;44.412;11.918;2022-09-12T10:45:28;29.90;94.70
39315;DHT22;28703;44.412;11.918;2022-09-12T10:47:56;30.00;94.90
39315;DHT22;28703;44.412;11.918;2022-09-12T10:50:29;30.00;95.20
39315;DHT22;28703;44.412;11.918;2022-09-12T10:53:31;30.30;95.50
39315;DHT22;28703;44.412;11.918;2022-09-12T10:56:33;30.30;94.20
39315;DHT22;28703;44.412;11.918;2022-09-12T11:12:39;30.70;94.20
39315;DHT22;28703;44.412;11.918;2022-09-12T11:21:06;31.10;94.10
39315;DHT22;28703;44.412;11.918;2022-09-12T11:29:46;31.40;92.40
39315;DHT22;28703;44.412;11.918;2022-09-12T11:35:21;30.80;92.10
39315;DHT22;28703;44.412;11.918;2022-09-12T11:45:51;31.90;89.30
39315;DHT22;28703;44.412;11.918;2022-09-12T11:48:54;31.80;89.80
39315;DHT22;28703;44.412;11.918;2022-09-12T11:54:37;31.80;89.20
39315;DHT22;28703;44.412;11.918;2022-09-12T11:57:10;31.80;88.60
39315;DHT22;28703;44.412;11.918;2022-09-12T12:02:27;31.90;87.90
39315;DHT22;28703;44.412;11.918;2022-09-12T12:10:39;32.40;84.90
39315;DHT22;28703;44.412;11.918;2022-09-12T12:13:31;32.40;85.00
39315;DHT22;28703;44.412;11.918;2022-09-12T12:15:59;32.50;86.30
39315;DHT22;28703;44.412;11.918;2022-09-12T12:18:30;32.60;85.80
39315;DHT22;28703;44.412;11.918;2022-09-12T12:26:57;32.40;85.00
39315;DHT22;28703;44.412;11.918;2022-09-12T12:29:44;32.60;83.30
39315;DHT22;28703;44.412;11.918;2022-09-12T12:34:37;32.40;82.90
39315;DHT22;28703;44.412;11.918;2022-09-12T12:48:10;32.30;83.10
39315;DHT22;28703;44.412;11.918;2022-09-12T12:50:39;32.40;84.10
39315;DHT22;28703;44.412;11.918;2022-09-12T12:53:19;32.40;84.80
39315;DHT22;28703;44.412;11.918;2022-09-12T12:55:51;32.50;83.90
39315;DHT22;28703;44.412;11.918;2022-09-12T12:58:34;32.30;83.40
39315;DHT22;28703;44.412;11.918;2022-09-12T13:01:20;32.50;84.00
39315;DHT22;28703;44.412;11.918;2022-09-12T13:06:38;32.50;83.20
39315;DHT22;28703;44.412;11.918;2022-09-12T13:12:00;32.60;81.90
39315;DHT22;28703;44.412;11.918;2022-09-12T13:14:37;32.50;83.10
39315;DHT22;28703;44.412;11.918;2022-09-12T13:17:32;32.40;84.50
39315;DHT22;28703;44.412;11.918;2022-09-12T13:20:44;32.10;83.30
39315;DHT22;28703;44.412;11.918;2022-09-12T13:23:23;31.90;82.50
39315;DHT22;28703;44.412;11.918;2022-09-12T13:25:56;31.70;83.50
39315;DHT22;28703;44.412;11.918;2022-09-12T13:28:23;31.90;84.10
39315;DHT22;28703;44.412;11.918;2022-09-12T13:33:39;31.70;83.40
39315;DHT22;28703;44.412;11.918;2022-09-12T13:44:27;29.90;90.50
39315;DHT22;28703;44.412;11.918;2022-09-12T13:46:57;29.50;90.70
39315;DHT22;28703;44.412;11.918;2022-09-12T13:49:36;29.30;90.90
39315;DHT22;28703;44.412;11.918;2022-09-12T13:52:08;29.10;91.60
39315;DHT22;28703;44.412;11.918;2022-09-12T13:54:37;28.80;91.90
39315;DHT22;28703;44.412;11.918;2022-09-12T13:57:04;28.60;92.20
39315;DHT22;28703;44.412;11.918;2022-09-12T13:59:40;28.40;92.20
39315;DHT22;28703;44.412;11.918;2022-09-12T14:02:19;28.30;92.10
39315;DHT22;28703;44.412;11.918;2022-09-12T14:04:50;28.20;92.80
39315;DHT22;28703;44.412;11.918;2022-09-12T14:07:40;28.00;92.60
39315;DHT22;28703;44.412;11.918;2022-09-12T14:10:14;27.90;92.70
39315;DHT22;28703;44.412;11.918;2022-09-12T14:12:43;27.70;92.60
39315;DHT22;28703;44.412;11.918;2022-09-12T14:15:22;27.60;92.60
39315;DHT22;28703;44.412;11.918;2022-09-12T14:17:51;27.60;93.50
39315;DHT22;28703;44.412;11.918;2022-09-12T14:20:19;27.50;93.50
39315;DHT22;28703;44.412;11.918;2022-09-12T14:22:46;27.40;93.20
39315;DHT22;28703;44.412;11.918;2022-09-12T14:25:22;27.40;93.60
39315;DHT22;28703;44.412;11.918;2022-09-12T14:27:52;27.40;93.40
39315;DHT22;28703;44.412;11.918;2022-09-12T14:33:04;27.30;94.00
39315;DHT22;28703;44.412;11.918;2022-09-12T14:35:30;27.30;93.90
39315;DHT22;28703;44.412;11.918;2022-09-12T14:38:12;27.20;94.00
39315;DHT22;28703;44.412;11.918;2022-09-12T14:40:46;27.20;95.30
39315;DHT22;28703;44.412;11.918;2022-09-12T14:43:27;27.20;95.60
39315;DHT22;28703;44.412;11.918;2022-09-12T14:46:02;27.10;95.50
39315;DHT22;28703;44.412;11.918;2022-09-12T14:48:35;27.10;95.70
39315;DHT22;28703;44.412;11.918;2022-09-12T14:51:03;27.10;95.80
39315;DHT22;28703;44.412;11.918;2022-09-12T14:53:32;27.10;96.30
39315;DHT22;28703;44.412;11.918;2022-09-12T14:56:06;27.00;96.20
39315;DHT22;28703;44.412;11.918;2022-09-12T14:58:32;27.00;96.40
39315;DHT22;28703;44.412;11.918;2022-09-12T15:01:02;27.00;96.40
39315;DHT22;28703;44.412;11.918;2022-09-12T15:03:49;26.90;96.90
39315;DHT22;28703;44.412;11.918;2022-09-12T15:06:27;26.90;96.80
39315;DHT22;28703;44.412;11.918;2022-09-12T15:08:55;26.80;96.80
39315;DHT22;28703;44.412;11.918;2022-09-12T15:11:21;26.80;96.90
39315;DHT22;28703;44.412;11.918;2022-09-12T15:13:47;26.70;97.10
39315;DHT22;28703;44.412;11.918;2022-09-12T15:16:13;26.70;97.30
39315;DHT22;28703;44.412;11.918;2022-09-12T15:18:40;26.70;97.30
39315;DHT22;28703;44.412;11.918;2022-09-12T15:21:07;26.70;97.30
39315;DHT22;28703;44.412;11.918;2022-09-12T15:23:49;26.60;97.40
39315;DHT22;28703;44.412;11.918;2022-09-12T15:26:21;26.60;97.50
39315;DHT22;28703;44.412;11.918;2022-09-12T15:28:48;26.50;97.80
39315;DHT22;28703;44.412;11.918;2022-09-12T15:33:49;26.40;97.90
39315;DHT22;28703;44.412;11.918;2022-09-12T15:36:17;26.30;98.10
39315;DHT22;28703;44.412;11.918;2022-09-12T15:38:45;26.30;98.10
39315;DHT22;28703;44.412;11.918;2022-09-12T15:41:25;26.20;98.60
39315;DHT22;28703;44.412;11.918;2022-09-12T15:43:52;26.20;98.40
39315;DHT22;28703;44.412;11.918;2022-09-12T15:46:18;26.10;98.50
39315;DHT22;28703;44.412;11.918;2022-09-12T15:48:44;26.10;98.60
39315;DHT22;28703;44.412;11.918;2022-09-12T15:51:13;26.10;99.00
39315;DHT22;28703;44.412;11.918;2022-09-12T15:53:39;26.10;99.20
39315;DHT22;28703;44.412;11.918;2022-09-12T15:56:05;26.00;99.30
39315;DHT22;28703;44.412;11.918;2022-09-12T15:58:31;26.00;99.20
39315;DHT22;28703;44.412;11.918;2022-09-12T16:00:58;26.00;99.40
39315;DHT22;28703;44.412;11.918;2022-09-12T16:03:25;26.00;99.60
39315;DHT22;28703;44.412;11.918;2022-09-12T16:06:00;26.00;99.60
39315;DHT22;28703;44.412;11.918;2022-09-12T16:08:27;26.00;99.70
39315;DHT22;28703;44.412;11.918;2022-09-12T16:10:57;26.00;99.80
39315;DHT22;28703;44.412;11.918;2022-09-12T16:13:23;26.00;99.80
39315;DHT22;28703;44.412;11.918;2022-09-12T16:15:50;26.20;99.90
39315;DHT22;28703;44.412;11.918;2022-09-12T16:18:16;26.20;99.70
39315;DHT22;28703;44.412;11.918;2022-09-12T16:20:42;26.30;99.70
39315;DHT22;28703;44.412;11.918;2022-09-12T16:23:11;26.30;99.70
39315;DHT22;28703;44.412;11.918;2022-09-12T16:25:38;26.20;99.80
39315;DHT22;28703;44.412;11.918;2022-09-12T16:28:05;26.00;99.90
39315;DHT22;28703;44.412;11.918;2022-09-12T16:30:34;25.90;99.90
39315;DHT22;28703;44.412;11.918;2022-09-12T16:33:00;25.80;99.90
39315;DHT22;28703;44.412;11.918;2022-09-12T16:35:26;25.70;99.90
39315;DHT22;28703;44.412;11.918;2022-09-12T16:37:52;25.60;99.90
39315;DHT22;28703;44.412;11.918;2022-09-12T16:40:18;25.50;99.90
39315;DHT22;28703;44.412;11.918;2022-09-12T16:42:44;25.40;99.90
39315;DHT22;28703;44.412;11.918;2022-09-12T16:45:11;25.30;99.90
39315;DHT22;28703;44.412;11.918;2022-09-12T16:47:38;25.20;99.90
39315;DHT22;28703;44.412;11.918;2022-09-12T16:50:04;25.20;99.90
39315;DHT22;28703;44.412;11.918;2022-09-12T16:52:33;25.10;99.90
39315;DHT22;28703;44.412;11.918;2022-09-12T16:54:59;25.00;99.90
39315;DHT22;28703;44.412;11.918;2022-09-12T16:57:24;25.00;99.90
39315;DHT22;28703;44.412;11.918;2022-09-12T16:59:50;24.90;99.90
39315;DHT22;28703;44.412;11.918;2022-09-12T17:02:16;24.90;99.90
39315;DHT22;28703;44.412;11.918;2022-09-12T17:04:42;24.80;99.90
39315;DHT22;28703;44.412;11.918;2022-09-12T17:07:08;24.80;99.90
39315;DHT22;28703;44.412;11.918;2022-09-12T17:09:34;24.70;99.90
39315;DHT22;28703;44.412;11.918;2022-09-12T17:12:00;24.60;99.90
39315;DHT22;28703;44.412;11.918;2022-09-12T17:14:26;24.50;99.90
39315;DHT22;28703;44.412;11.918;2022-09-12T17:16:52;24.50;99.90
39315;DHT22;28703;44.412;11.918;2022-09-12T17:19:23;24.40;99.90
39315;DHT22;28703;44.412;11.918;2022-09-12T17:21:55;24.30;99.90
39315;DHT22;28703;44.412;11.918;2022-09-12T17:24:21;24.30;99.90
39315;DHT22;28703;44.412;11.918;2022-09-12T17:26:48;24.20;99.90
39315;DHT22;28703;44.412;11.918;2022-09-12T17:29:14;24.20;99.90
39315;DHT22;28703;44.412;11.918;2022-09-12T17:31:42;24.10;99.90
39315;DHT22;28703;44.412;11.918;2022-09-12T17:34:08;24.10;99.90
39315;DHT22;28703;44.412;11.918;2022-09-12T17:36:35;24.00;99.90
39315;DHT22;28703;44.412;11.918;2022-09-12T17:39:02;23.90;99.90
39315;DHT22;28703;44.412;11.918;2022-09-12T17:41:29;23.90;99.90
39315;DHT22;28703;44.412;11.918;2022-09-12T17:43:57;23.80;99.90
39315;DHT22;28703;44.412;11.918;2022-09-12T17:46:35;23.80;99.90
39315;DHT22;28703;44.412;11.918;2022-09-12T17:49:03;23.70;99.90
39315;DHT22;28703;44.412;11.918;2022-09-12T17:51:29;23.60;99.90
39315;DHT22;28703;44.412;11.918;2022-09-12T17:54:01;23.60;99.90
39315;DHT22;28703;44.412;11.918;2022-09-12T17:56:29;23.50;99.90
39315;DHT22;28703;44.412;11.918;2022-09-12T17:58:57;23.50;99.90
39315;DHT22;28703;44.412;11.918;2022-09-12T18:01:23;23.50;99.90
39315;DHT22;28703;44.412;11.918;2022-09-12T18:04:08;23.40;99.90
39315;DHT22;28703;44.412;11.918;2022-09-12T18:06:35;23.30;99.90
39315;DHT22;28703;44.412;11.918;2022-09-12T18:09:03;23.30;99.90
39315;DHT22;28703;44.412;11.918;2022-09-12T18:11:30;23.20;99.90
39315;DHT22;28703;44.412;11.918;2022-09-12T18:13:57;23.20;99.90
39315;DHT22;28703;44.412;11.918;2022-09-12T18:16:24;23.10;99.90
39315;DHT22;28703;44.412;11.918;2022-09-12T18:18:50;23.10;99.90
39315;DHT22;28703;44.412;11.918;2022-09-12T18:21:17;23.10;99.90
39315;DHT22;28703;44.412;11.918;2022-09-12T18:23:45;23.00;99.90
39315;DHT22;28703;44.412;11.918;2022-09-12T18:26:11;23.00;99.90
39315;DHT22;28703;44.412;11.918;2022-09-12T18:28:41;22.90;99.90
39315;DHT22;28703;44.412;11.918;2022-09-12T18:31:13;22.90;99.90
39315;DHT22;28703;44.412;11.918;2022-09-12T18:33:40;22.90;99.90
39315;DHT22;28703;44.412;11.918;2022-09-12T18:36:08;22.80;99.90
39315;DHT22;28703;44.412;11.918;2022-09-12T18:38:36;22.80;99.90
39315;DHT22;28703;44.412;11.918;2022-09-12T18:41:27;22.80;99.90
39315;DHT22;28703;44.412;11.918;2022-09-12T18:43:55;22.80;99.90
39315;DHT22;28703;44.412;11.918;2022-09-12T18:46:21;22.60;99.90
39315;DHT22;28703;44.412;11.918;2022-09-12T18:48:48;22.60;99.90
39315;DHT22;28703;44.412;11.918;2022-09-12T18:51:19;22.60;99.90
39315;DHT22;28703;44.412;11.918;2022-09-12T18:53:55;22.60;99.90
39315;DHT22;28703;44.412;11.918;2022-09-12T18:56:23;22.60;99.90
39315;DHT22;28703;44.412;11.918;2022-09-12T18:58:52;22.60;99.90
39315;DHT22;28703;44.412;11.918;2022-09-12T19:01:20;22.50;99.90
39315;DHT22;28703;44.412;11.918;2022-09-12T19:03:47;22.50;99.90
39315;DHT22;28703;44.412;11.918;2022-09-12T19:06:19;22.50;99.90
39315;DHT22;28703;44.412;11.918;2022-09-12T19:08:46;22.50;99.90
39315;DHT22;28703;44.412;11.918;2022-09-12T19:11:12;22.40;99.90
39315;DHT22;28703;44.412;11.918;2022-09-12T19:13:42;22.40;99.90
39315;DHT22;28703;44.412;11.918;2022-09-12T19:16:10;22.40;99.90
39315;DHT22;28703;44.412;11.918;2022-09-12T19:18:37;22.40;99.90
39315;DHT22;28703;44.412;11.918;2022-09-12T19:21:05;22.30;99.90
39315;DHT22;28703;44.412;11.918;2022-09-12T19:23:33;22.30;99.90
39315;DHT22;28703;44.412;11.918;2022-09-12T19:26:03;22.30;99.90
39315;DHT22;28703;44.412;11.918;2022-09-12T19:28:30;22.30;99.90
39315;DHT22;28703;44.412;11.918;2022-09-12T19:30:58;22.30;99.90
39315;DHT22;28703;44.412;11.918;2022-09-12T19:33:25;22.20;99.90
39315;DHT22;28703;44.412;11.918;2022-09-12T19:35:54;22.20;99.90
39315;DHT22;28703;44.412;11.918;2022-09-12T19:38:20;22.10;99.90
39315;DHT22;28703;44.412;11.918;2022-09-12T19:40:55;22.20;99.90
39315;DHT22;28703;44.412;11.918;2022-09-12T19:43:23;22.20;99.90
39315;DHT22;28703;44.412;11.918;2022-09-12T19:45:51;22.10;99.90
39315;DHT22;28703;44.412;11.918;2022-09-12T19:48:19;22.00;99.90
39315;DHT22;28703;44.412;11.918;2022-09-12T19:50:46;22.10;99.90
39315;DHT22;28703;44.412;11.918;2022-09-12T19:53:12;22.00;99.90
39315;DHT22;28703;44.412;11.918;2022-09-12T19:55:39;22.00;99.90
39315;DHT22;28703;44.412;11.918;2022-09-12T19:58:05;22.00;99.90
39315;DHT22;28703;44.412;11.918;2022-09-12T20:00:34;22.00;99.90
39315;DHT22;28703;44.412;11.918;2022-09-12T20:03:01;22.00;99.90
39315;DHT22;28703;44.412;11.918;2022-09-12T20:05:27;22.00;99.90
39315;DHT22;28703;44.412;11.918;2022-09-12T20:07:54;22.00;99.90
39315;DHT22;28703;44.412;11.918;2022-09-12T20:10:20;21.90;99.90
39315;DHT22;28703;44.412;11.918;2022-09-12T20:12:46;21.90;99.90
39315;DHT22;28703;44.412;11.918;2022-09-12T20:15:12;21.90;99.90
39315;DHT22;28703;44.412;11.918;2022-09-12T20:17:38;21.90;99.90
39315;DHT22;28703;44.412;11.918;2022-09-12T20:20:06;21.90;99.90
39315;DHT22;28703;44.412;11.918;2022-09-12T20:22:33;21.90;99.90
39315;DHT22;28703;44.412;11.918;2022-09-12T20:24:59;21.90;99.90
39315;DHT22;28703;44.412;11.918;2022-09-12T20:27:25;21.90;99.90
39315;DHT22;28703;44.412;11.918;2022-09-12T20:29:51;21.90;99.90
39315;DHT22;28703;44.412;11.918;2022-09-12T20:32:19;21.80;99.90
39315;DHT22;28703;44.412;11.918;2022-09-12T20:34:45;21.80;99.90
39315;DHT22;28703;44.412;11.918;2022-09-12T20:37:11;21.80;99.90
39315;DHT22;28703;44.412;11.918;2022-09-12T20:39:37;21.80;99.90
39315;DHT22;28703;44.412;11.918;2022-09-12T20:42:03;21.70;99.90
39315;DHT22;28703;44.412;11.918;2022-09-12T20:44:29;21.70;99.90
39315;DHT22;28703;44.412;11.918;2022-09-12T20:46:55;21.70;99.90
39315;DHT22;28703;44.412;11.918;2022-09-12T20:49:21;21.60;99.90
39315;DHT22;28703;44.412;11.918;2022-09-12T20:51:49;21.60;99.90
39315;DHT22;28703;44.412;11.918;2022-09-12T20:54:15;21.60;99.90
39315;DHT22;28703;44.412;11.918;2022-09-12T20:56:42;21.60;99.90
39315;DHT22;28703;44.412;11.918;2022-09-12T20:59:12;21.50;99.90
39315;DHT22;28703;44.412;11.918;2022-09-12T21:01:38;21.50;99.90
39315;DHT22;28703;44.412;11.918;2022-09-12T21:04:04;21.50;99.90
39315;DHT22;28703;44.412;11.918;2022-09-12T21:06:31;21.50;99.90
39315;DHT22;28703;44.412;11.918;2022-09-12T21:08:57;21.40;99.90
39315;DHT22;28703;44.412;11.918;2022-09-12T21:11:27;21.40;99.90
39315;DHT22;28703;44.412;11.918;2022-09-12T21:13:54;21.40;99.90
39315;DHT22;28703;44.412;11.918;2022-09-12T21:16:21;21.40;99.90
39315;DHT22;28703;44.412;11.918;2022-09-12T21:18:56;21.40;99.90
39315;DHT22;28703;44.412;11.918;2022-09-12T21:21:22;21.50;99.90
39315;DHT22;28703;44.412;11.918;2022-09-12T21:23:49;21.40;99.90
39315;DHT22;28703;44.412;11.918;2022-09-12T21:26:19;21.40;99.90
39315;DHT22;28703;44.412;11.918;2022-09-12T21:28:46;21.40;99.90
39315;DHT22;28703;44.412;11.918;2022-09-12T21:31:12;21.40;99.90
39315;DHT22;28703;44.412;11.918;2022-09-12T21:33:38;21.40;99.90
39315;DHT22;28703;44.412;11.918;2022-09-12T21:36:05;21.40;99.90
39315;DHT22;28703;44.412;11.918;2022-09-12T21:38:31;21.40;99.90
39315;DHT22;28703;44.412;11.918;2022-09-12T21:41:08;21.40;99.90
39315;DHT22;28703;44.412;11.918;2022-09-12T21:43:36;21.40;99.90
39315;DHT22;28703;44.412;11.918;2022-09-12T21:46:03;21.30;99.90
39315;DHT22;28703;44.412;11.918;2022-09-12T21:48:29;21.30;99.90
39315;DHT22;28703;44.412;11.918;2022-09-12T21:50:55;21.30;99.90
39315;DHT22;28703;44.412;11.918;2022-09-12T21:53:21;21.20;99.90
39315;DHT22;28703;44.412;11.918;2022-09-12T21:55:47;21.20;99.90
39315;DHT22;28703;44.412;11.918;2022-09-12T21:58:13;21.20;99.90
39315;DHT22;28703;44.412;11.918;2022-09-12T22:00:42;21.20;99.90
39315;DHT22;28703;44.412;11.918;2022-09-12T22:03:09;21.20;99.90
39315;DHT22;28703;44.412;11.918;2022-09-12T22:05:35;21.30;99.90
39315;DHT22;28703;44.412;11.918;2022-09-12T22:08:05;21.30;99.90
39315;DHT22;28703;44.412;11.918;2022-09-12T22:10:31;21.20;99.90
39315;DHT22;28703;44.412;11.918;2022-09-12T22:12:57;21.20;99.90
39315;DHT22;28703;44.412;11.918;2022-09-12T22:15:23;21.20;99.90
39315;DHT22;28703;44.412;11.918;2022-09-12T22:17:49;21.20;99.90
39315;DHT22;28703;44.412;11.918;2022-09-12T22:20:15;21.20;99.90
39315;DHT22;28703;44.412;11.918;2022-09-12T22:22:41;21.10;99.90
39315;DHT22;28703;44.412;11.918;2022-09-12T22:25:25;21.10;99.90
39315;DHT22;28703;44.412;11.918;2022-09-12T22:27:51;21.00;99.90
39315;DHT22;28703;44.412;11.918;2022-09-12T22:30:18;21.00;99.90
39315;DHT22;28703;44.412;11.918;2022-09-12T22:32:46;21.00;99.90
39315;DHT22;28703;44.412;11.918;2022-09-12T22:35:15;20.90;99.90
39315;DHT22;28703;44.412;11.918;2022-09-12T22:37:41;20.90;99.90
39315;DHT22;28703;44.412;11.918;2022-09-12T22:40:07;20.90;99.90
39315;DHT22;28703;44.412;11.918;2022-09-12T22:42:33;20.90;99.90
39315;DHT22;28703;44.412;11.918;2022-09-12T22:45:00;20.90;99.90
39315;DHT22;28703;44.412;11.918;2022-09-12T22:47:26;20.90;99.90
39315;DHT22;28703;44.412;11.918;2022-09-12T22:49:52;20.80;99.90
39315;DHT22;28703;44.412;11.918;2022-09-12T22:52:18;20.80;99.90
39315;DHT22;28703;44.412;11.918;2022-09-12T22:54:44;20.70;99.90
39315;DHT22;28703;44.412;11.918;2022-09-12T22:57:10;20.70;99.90
39315;DHT22;28703;44.412;11.918;2022-09-12T22:59:36;20.70;99.90
39315;DHT22;28703;44.412;11.918;2022-09-12T23:02:03;20.70;99.90
39315;DHT22;28703;44.412;11.918;2022-09-12T23:04:30;20.60;99.90
39315;DHT22;28703;44.412;11.918;2022-09-12T23:06:55;20.50;99.90
39315;DHT22;28703;44.412;11.918;2022-09-12T23:09:21;20.50;99.90
39315;DHT22;28703;44.412;11.918;2022-09-12T23:11:48;20.50;99.90
39315;DHT22;28703;44.412;11.918;2022-09-12T23:14:13;20.50;99.90
39315;DHT22;28703;44.412;11.918;2022-09-12T23:16:39;20.50;99.90
39315;DHT22;28703;44.412;11.918;2022-09-12T23:19:05;20.50;99.90
39315;DHT22;28703;44.412;11.918;2022-09-12T23:21:31;20.50;99.90
39315;DHT22;28703;44.412;11.918;2022-09-12T23:23:57;20.50;99.90
39315;DHT22;28703;44.412;11.918;2022-09-12T23:26:24;20.40;99.90
39315;DHT22;28703;44.412;11.918;2022-09-12T23:28:59;20.30;99.90
39315;DHT22;28703;44.412;11.918;2022-09-12T23:31:29;20.30;99.90
39315;DHT22;28703;44.412;11.918;2022-09-12T23:33:57;20.20;99.90
39315;DHT22;28703;44.412;11.918;2022-09-12T23:36:24;20.20;99.90
39315;DHT22;28703;44.412;11.918;2022-09-12T23:38:50;20.20;99.90
39315;DHT22;28703;44.412;11.918;2022-09-12T23:41:17;20.20;99.90
39315;DHT22;28703;44.412;11.918;2022-09-12T23:43:43;20.20;99.90
39315;DHT22;28703;44.412;11.918;2022-09-12T23:46:11;20.20;99.90
39315;DHT22;28703;44.412;11.918;2022-09-12T23:48:40;20.10;99.90
39315;DHT22;28703;44.412;11.918;2022-09-12T23:51:06;20.00;99.90
39315;DHT22;28703;44.412;11.918;2022-09-12T23:53:33;20.00;99.90
39315;DHT22;28703;44.412;11.918;2022-09-12T23:56:00;19.90;99.90
39315;DHT22;28703;44.412;11.918;2022-09-12T23:58:27;19.90;99.90
